Main page
METAR-TAF:

METAR-TAF

Airports :

Niamey, Niger

Diori Hamani International Airport

latitude: 13-29N, longitude: 002-10E, elevation: 223 m

Current weather observation

The report was made 1 hour and 5 minutes ago, at 05:00 UTC
Wind 2 kt from the South/Southeast
Temperature 20°C
Humidity 60%
Pressure 1010 hPa
Visibility: 6000 m

METAR: DRRN 240500Z 16002KT 6000 NSC 20/12 Q1010 TEMPO 4000 DU

Time: 07:05 (06:05 UTC)

Forecast

The report was made 1 hour and 5 minutes ago, at 05:00 UTC
Forecast valid from 24 at 06 UTC to 25 at 12 UTC
Wind 8 kt from the Southeast
Visibility: 8000 m
Temporary
from 24 at 06 UTC to 24 at 10 UTC
Visibility: 4000 m
widespread dust
Temporary
from 24 at 17 UTC to 24 at 20 UTC
Visibility: 3500 m
widespread dust

TAF: DRRN 240500Z 2406/2512 14008KT 8000 NSC TEMPO 2406/2410 4000 DU TEMPO 2417/2420 3500 DU

Weather observations and forecasts of more than 4000 airports (METAR and TAF reports).

The available stations are represented by yellow and red dots on the map.

Hover mouse over dot to see the name of the station.

Then click to see weather observations and forecasts.

To change the map : click on the green buttons with a black cross to zoom in, on the green button with a dash to zoom out, or on the green arrows for adjacent maps.


METAR-TAF: